Time;durP1;ratioP1;P1;durP2;ratioP2;P2;SDS_P1;SDS_P2;PMS_P1;PMS_P2;Temp;Humidity;BMP_temperature;BMP_pressure;BME280_temperature;BME280_humidity;BME280_pressure;Samples;Min_cycle;Max_cycle;Signal;HPM_P1;HPM_P2
2022/02/26 00:01:09;;;;;;;4.60;3.92;;;;;;;-0.47;74.50;97155.75;1737436;81;20992;-83
2022/02/26 00:03:34;;;;;;;5.40;4.28;;;;;;;-0.48;74.60;97154.58;1736053;81;21374;-83
2022/02/26 00:06:00;;;;;;;5.25;3.95;;;;;;;-0.50;74.65;97159.75;1730784;81;20948;-83
2022/02/26 00:08:26;;;;;;;6.45;4.08;;;;;;;-0.50;73.73;97157.66;1731666;82;20980;-83
2022/02/26 00:10:51;;;;;;;5.08;4.15;;;;;;;-0.47;74.34;97164.69;1706555;82;21434;-83
2022/02/26 00:13:17;;;;;;;6.97;3.75;;;;;;;-0.48;74.20;97156.67;1733383;82;20956;-83
2022/02/26 00:15:44;;;;;;;4.08;3.60;;;;;;;-0.51;74.06;97159.39;1740901;82;21080;-83
2022/02/26 00:18:09;;;;;;;5.45;4.12;;;;;;;-0.52;74.30;97163.31;1723761;82;21482;-82
2022/02/26 00:20:35;;;;;;;5.83;3.58;;;;;;;-0.49;74.03;97161.42;1729152;82;21011;-83
2022/02/26 00:23:01;;;;;;;4.17;3.55;;;;;;;-0.49;74.07;97168.23;1728664;82;20972;-83
2022/02/26 00:25:26;;;;;;;6.42;3.30;;;;;;;-0.50;73.92;97158.93;1726959;82;20988;-82
2022/02/26 00:27:52;;;;;;;5.50;3.35;;;;;;;-0.50;73.68;97173.79;1731856;82;20979;-83
2022/02/26 00:30:18;;;;;;;3.60;3.17;;;;;;;-0.53;73.79;97180.36;1721513;82;20980;-82
2022/02/26 00:32:44;;;;;;;5.05;3.70;;;;;;;-0.54;73.58;97172.80;1729621;82;21327;-82
2022/02/26 00:35:09;;;;;;;5.03;3.50;;;;;;;-0.52;73.73;97182.46;1725795;82;20980;-83
2022/02/26 00:37:35;;;;;;;6.78;3.70;;;;;;;-0.54;73.47;97172.80;1724832;82;20989;-83
2022/02/26 00:40:01;;;;;;;6.42;3.83;;;;;;;-0.55;73.73;97180.92;1725181;82;21007;-82
2022/02/26 00:42:27;;;;;;;3.50;3.10;;;;;;;-0.56;73.50;97180.56;1729621;82;21354;-82
2022/02/26 00:44:52;;;;;;;3.98;3.15;;;;;;;-0.58;73.69;97170.91;1728878;82;21023;-82
2022/02/26 00:47:18;;;;;;;4.00;3.33;;;;;;;-0.59;73.62;97176.10;1718626;82;20961;-82
2022/02/26 00:49:47;;;;;;;5.15;3.05;;;;;;;-0.61;73.50;97177.02;1733814;82;21056;-82
2022/02/26 00:52:15;;;;;;;4.47;3.15;;;;;;;-0.60;73.63;97175.28;1731527;82;20996;-83
2022/02/26 00:54:41;;;;;;;5.65;3.12;;;;;;;-0.62;73.47;97174.11;1695021;83;21002;-82
2022/02/26 00:57:07;;;;;;;4.20;2.90;;;;;;;-0.62;73.33;97180.48;1698439;84;21345;-82
2022/02/26 00:59:32;;;;;;;5.80;3.05;;;;;;;-0.62;73.42;97174.56;1695485;85;20999;-82
2022/02/26 01:01:58;;;;;;;5.20;2.85;;;;;;;-0.63;73.35;97180.58;1702407;83;20982;-82
2022/02/26 01:04:24;;;;;;;4.75;3.00;;;;;;;-0.65;73.23;97187.06;1730729;82;21052;-82
2022/02/26 01:06:50;;;;;;;4.33;2.70;;;;;;;-0.64;73.15;97184.05;1705331;82;21543;-82
2022/02/26 01:09:16;;;;;;;3.30;2.92;;;;;;;-0.63;72.93;97187.78;1695334;83;21110;-82
2022/02/26 01:11:42;;;;;;;3.02;2.65;;;;;;;-0.63;73.00;97180.58;1695188;83;21414;-82
2022/02/26 01:14:08;;;;;;;5.78;3.90;;;;;;;-0.65;72.70;97188.80;1675260;85;21004;-82
2022/02/26 01:16:34;;;;;;;5.97;2.90;;;;;;;-0.63;72.96;97186.97;1697988;83;21015;-82
2022/02/26 01:19:00;;;;;;;4.05;2.80;;;;;;;-0.64;72.97;97187.42;1694459;84;20960;-82
2022/02/26 01:21:25;;;;;;;3.25;2.42;;;;;;;-0.65;72.94;97187.06;1691346;84;21401;-82
2022/02/26 01:23:51;;;;;;;4.90;2.80;;;;;;;-0.59;73.13;97190.14;1692634;83;21047;-82
2022/02/26 01:26:18;;;;;;;4.67;2.92;;;;;;;-0.58;72.85;97195.61;1691834;83;20968;-82
2022/02/26 01:28:44;;;;;;;3.37;2.83;;;;;;;-0.61;72.83;97194.89;1699330;83;21080;-82
2022/02/26 01:31:10;;;;;;;3.40;2.85;;;;;;;-0.60;72.31;97190.60;1692087;83;21120;-82
2022/02/26 01:33:36;;;;;;;5.20;3.05;;;;;;;-0.58;72.65;97191.32;1652866;85;21409;-82
2022/02/26 01:36:01;;;;;;;4.35;2.75;;;;;;;-0.57;72.81;97189.59;1698189;83;21075;-82
2022/02/26 01:38:27;;;;;;;3.67;2.65;;;;;;;-0.58;72.83;97188.77;1710686;83;21101;-82
2022/02/26 01:40:53;;;;;;;4.80;2.60;;;;;;;-0.56;72.75;97189.49;1713261;83;21088;-82
2022/02/26 01:43:19;;;;;;;4.08;2.77;;;;;;;-0.52;72.62;97193.95;1692172;84;21343;-82
2022/02/26 01:45:44;;;;;;;5.87;3.02;;;;;;;-0.46;72.31;97193.59;1713371;83;21008;-82
2022/02/26 01:48:10;;;;;;;3.55;3.25;;;;;;;-0.44;72.48;97195.59;1706055;83;20999;-82
2022/02/26 01:50:36;;;;;;;5.25;2.90;;;;;;;-0.43;72.67;97187.02;1695914;83;21406;-82
2022/02/26 01:53:02;;;;;;;6.10;3.72;;;;;;;-0.40;72.74;97194.03;1708381;83;20972;-82
2022/02/26 01:55:28;;;;;;;7.53;4.00;;;;;;;-0.37;72.78;97190.00;1708295;83;20983;-82
2022/02/26 01:57:54;;;;;;;5.05;3.35;;;;;;;-0.34;72.72;97192.81;1714825;83;20992;-82
2022/02/26 02:00:19;;;;;;;18.82;8.18;;;;;;;-0.29;72.87;97193.38;1720094;83;21454;-82
2022/02/26 02:02:45;;;;;;;4.87;3.30;;;;;;;-0.31;72.29;97195.20;1709977;83;21374;-83
2022/02/26 02:05:12;;;;;;;4.33;3.87;;;;;;;-0.27;72.88;97192.81;1718882;83;21135;-82
2022/02/26 02:07:38;;;;;;;7.08;3.80;;;;;;;-0.30;72.72;97189.19;1714534;83;22042;-82
2022/02/26 02:10:05;;;;;;;7.35;4.35;;;;;;;-0.30;73.01;97190.46;1689886;83;21055;-82
2022/02/26 02:12:31;;;;;;;8.83;4.17;;;;;;;-0.28;72.45;97195.02;1688005;85;21159;-82
2022/02/26 02:14:57;;;;;;;5.45;3.33;;;;;;;-0.26;71.80;97193.18;1689952;84;21471;-82
2022/02/26 02:17:23;;;;;;;43.02;16.67;;;;;;;-0.24;71.66;97192.62;1690769;85;21097;-82
2022/02/26 02:19:52;;;;;;;8.23;4.22;;;;;;;-0.21;71.42;97194.98;1673108;85;21058;-82
2022/02/26 02:22:19;;;;;;;8.73;4.92;;;;;;;-0.18;71.73;97198.62;1690723;84;21082;-82
2022/02/26 02:24:45;;;;;;;12.73;5.25;;;;;;;-0.18;71.20;97191.41;1692987;84;20951;-82
2022/02/26 02:27:12;;;;;;;8.63;4.87;;;;;;;-0.15;71.54;97191.25;1695550;84;21058;-82
2022/02/26 02:29:38;;;;;;;13.70;6.37;;;;;;;-0.16;71.39;97198.09;1690698;85;21421;-82
2022/02/26 02:32:05;;;;;;;10.50;4.70;;;;;;;-0.17;71.04;97200.71;1691161;85;21048;-82
2022/02/26 02:34:31;;;;;;;9.50;4.12;;;;;;;-0.16;71.37;97199.37;1692307;84;21033;-82
2022/02/26 02:36:56;;;;;;;6.53;4.00;;;;;;;-0.18;71.32;97197.34;1700616;84;21045;-82
2022/02/26 02:39:22;;;;;;;5.40;3.35;;;;;;;-0.20;71.73;97194.06;1703341;84;21412;-82
2022/02/26 02:41:48;;;;;;;7.85;4.00;;;;;;;-0.20;71.57;97200.91;1697749;84;21000;-82
2022/02/26 02:44:14;;;;;;;4.97;3.45;;;;;;;-0.22;71.62;97199.73;1688010;84;21016;-81
2022/02/26 02:46:41;;;;;;;4.83;4.33;;;;;;;-0.27;71.87;97192.81;1686315;85;20960;-83
2022/02/26 02:49:07;;;;;;;6.47;4.00;;;;;;;-0.31;72.02;97194.75;1691260;85;21063;-82
2022/02/26 02:51:32;;;;;;;5.95;4.00;;;;;;;-0.35;71.73;97197.11;1691212;85;21039;-83
2022/02/26 02:53:58;;;;;;;5.08;3.80;;;;;;;-0.39;72.20;97199.95;1693665;84;21034;-82
2022/02/26 02:56:24;;;;;;;6.40;4.30;;;;;;;-0.39;72.17;97205.06;1692454;84;21320;-82
2022/02/26 02:58:50;;;;;;;7.60;4.17;;;;;;;-0.43;71.73;97204.44;1691240;85;20981;-82
2022/02/26 03:01:15;;;;;;;5.87;3.90;;;;;;;-0.43;71.77;97206.98;1692319;84;21371;-82
2022/02/26 03:03:41;;;;;;;6.17;4.03;;;;;;;-0.43;71.88;97207.45;1690069;84;21510;-82
2022/02/26 03:06:07;;;;;;;4.72;3.37;;;;;;;-0.42;72.23;97210.36;1690631;85;21024;-82
2022/02/26 03:08:33;;;;;;;11.35;6.08;;;;;;;-0.43;71.97;97214.64;1691243;85;20980;-82
2022/02/26 03:10:59;;;;;;;13.38;6.33;;;;;;;-0.44;71.26;97218.11;1706245;83;21078;-82
2022/02/26 03:13:26;;;;;;;9.38;4.62;;;;;;;-0.41;71.19;97217.10;1717640;83;21008;-82
2022/02/26 03:15:53;;;;;;;5.20;3.58;;;;;;;-0.38;70.99;97221.56;1719845;83;21029;-82
2022/02/26 03:18:19;;;;;;;7.58;3.77;;;;;;;-0.35;71.41;97225.66;1717407;83;21003;-82
2022/02/26 03:20:45;;;;;;;6.53;3.60;;;;;;;-0.37;71.33;97227.48;1717021;83;21408;-82
2022/02/26 03:23:11;;;;;;;6.78;4.10;;;;;;;-0.38;71.72;97227.94;1716271;83;20964;-82
2022/02/26 03:25:36;;;;;;;8.20;4.22;;;;;;;-0.38;71.27;97233.05;1704847;83;21003;-82
2022/02/26 03:28:02;;;;;;;5.92;3.62;;;;;;;-0.40;71.65;97227.67;1696318;84;21400;-82
2022/02/26 03:30:28;;;;;;;6.42;3.42;;;;;;;-0.42;71.71;97230.78;1699735;84;21030;-82
2022/02/26 03:32:54;;;;;;;12.05;6.55;;;;;;;-0.47;71.22;97228.98;1703038;84;21036;-82
2022/02/26 03:35:19;;;;;;;11.20;4.70;;;;;;;-0.47;71.19;97233.63;1694734;84;20958;-82
2022/02/26 03:37:45;;;;;;;9.10;4.40;;;;;;;-0.43;71.27;97236.81;1689473;84;21406;-82
2022/02/26 03:40:11;;;;;;;6.42;3.85;;;;;;;-0.43;71.00;97244.47;1678127;85;21053;-82
2022/02/26 03:42:37;;;;;;;6.03;4.10;;;;;;;-0.42;71.45;97242.27;1667738;85;21118;-82
2022/02/26 03:45:05;;;;;;;5.35;3.50;;;;;;;-0.45;71.61;97244.56;1654819;85;20993;-82
2022/02/26 03:47:31;;;;;;;6.83;4.05;;;;;;;-0.46;71.48;97245.48;1668468;84;21057;-82
2022/02/26 03:49:56;;;;;;;5.67;3.80;;;;;;;-0.44;71.76;97249.21;1668390;86;21399;-82
2022/02/26 03:52:22;;;;;;;11.20;5.92;;;;;;;-0.47;72.01;97254.05;1668230;86;21013;-82
2022/02/26 03:54:49;;;;;;;6.08;3.87;;;;;;;-0.46;71.65;97254.87;1667793;84;21023;-83
2022/02/26 03:57:14;;;;;;;7.97;4.00;;;;;;;-0.45;71.45;97270.55;1685394;84;21354;-82
2022/02/26 03:59:40;;;;;;;5.67;3.55;;;;;;;-0.45;71.72;97271.83;1704646;84;20991;-82
2022/02/26 04:02:06;;;;;;;7.97;4.30;;;;;;;-0.47;72.06;97281.31;1681270;84;21043;-82
2022/02/26 04:04:32;;;;;;;4.40;3.45;;;;;;;-0.46;71.95;97282.95;1667383;84;21043;-82
2022/02/26 04:06:57;;;;;;;5.45;4.05;;;;;;;-0.50;72.02;97289.95;1668582;86;21359;-82
2022/02/26 04:09:23;;;;;;;5.10;3.80;;;;;;;-0.53;72.12;97285.48;1699367;84;21361;-82
2022/02/26 04:11:49;;;;;;;6.50;4.35;;;;;;;-0.56;71.60;97284.41;1683412;85;21050;-82
2022/02/26 04:14:15;;;;;;;8.10;4.40;;;;;;;-0.56;71.95;97288.23;1680514;85;20977;-82
2022/02/26 04:16:42;;;;;;;6.20;3.80;;;;;;;-0.56;72.13;97283.95;1681672;85;21016;-82
2022/02/26 04:19:07;;;;;;;6.67;3.45;;;;;;;-0.58;72.37;97284.49;1686697;85;21029;-82
2022/02/26 04:21:34;;;;;;;7.28;5.10;;;;;;;-0.62;72.10;97290.70;1684760;85;21016;-82
2022/02/26 04:23:59;;;;;;;6.53;3.40;;;;;;;-0.62;71.86;97296.63;1686277;85;21448;-82
2022/02/26 04:26:25;;;;;;;5.92;3.72;;;;;;;-0.62;71.78;97292.80;1686043;85;21000;-82
2022/02/26 04:28:53;;;;;;;5.28;3.47;;;;;;;-0.64;71.75;97296.36;1686662;85;21370;-82
2022/02/26 04:31:19;;;;;;;5.85;4.10;;;;;;;-0.65;71.58;97299.82;1685977;85;21016;-83
2022/02/26 04:33:45;;;;;;;5.20;3.83;;;;;;;-0.66;71.71;97304.08;1686553;85;21026;-82
2022/02/26 04:36:11;;;;;;;5.40;4.03;;;;;;;-0.67;71.62;97301.62;1686194;85;21047;-82
2022/02/26 04:38:38;;;;;;;5.30;3.65;;;;;;;-0.71;71.61;97299.70;1686546;85;21003;-82
2022/02/26 04:41:03;;;;;;;5.22;3.52;;;;;;;-0.76;71.60;97302.17;1685932;85;22289;-82
2022/02/26 04:43:29;;;;;;;4.20;3.80;;;;;;;-0.80;71.91;97313.02;1681152;85;21094;-82
2022/02/26 04:45:55;;;;;;;5.28;3.87;;;;;;;-0.82;72.15;97309.70;1678731;85;21355;-82
2022/02/26 04:48:21;;;;;;;6.30;3.58;;;;;;;-0.80;72.11;97314.30;1686437;85;21056;-82
2022/02/26 04:50:47;;;;;;;8.08;3.90;;;;;;;-0.81;72.35;97315.20;1686415;85;21345;-82
2022/02/26 04:53:12;;;;;;;5.60;3.60;;;;;;;-0.83;72.40;97315.72;1685987;85;21004;-82
2022/02/26 04:55:38;;;;;;;5.95;3.87;;;;;;;-0.85;72.50;97321.83;1686509;85;21037;-82
2022/02/26 04:58:04;;;;;;;4.30;3.90;;;;;;;-0.86;72.68;97321.00;1686112;85;21387;-82
2022/02/26 05:00:30;;;;;;;6.65;3.92;;;;;;;-0.87;72.70;97323.19;1686702;85;21354;-82
2022/02/26 05:02:55;;;;;;;5.65;3.90;;;;;;;-0.87;72.68;97325.75;1682048;85;21460;-82
2022/02/26 05:05:21;;;;;;;5.80;4.12;;;;;;;-0.86;72.57;97329.12;1678845;85;21019;-82
2022/02/26 05:07:47;;;;;;;7.10;3.62;;;;;;;-0.87;72.55;97332.13;1681226;85;21025;-82
2022/02/26 05:10:13;;;;;;;7.80;3.72;;;;;;;-0.88;72.59;97338.14;1685126;84;21433;-83
2022/02/26 05:12:39;;;;;;;6.22;3.60;;;;;;;-0.89;72.57;97339.05;1675889;85;21067;-82
2022/02/26 05:15:06;;;;;;;6.30;3.77;;;;;;;-0.90;72.72;97348.89;1699141;84;21312;-82
2022/02/26 05:17:32;;;;;;;6.22;4.00;;;;;;;-0.89;72.78;97356.91;1687236;84;20997;-82
2022/02/26 05:19:58;;;;;;;4.95;4.42;;;;;;;-0.92;72.92;97354.53;1678843;85;21055;-83
2022/02/26 05:22:24;;;;;;;6.53;3.87;;;;;;;-0.93;72.91;97361.83;1680544;84;21344;-82
2022/02/26 05:24:49;;;;;;;5.53;4.00;;;;;;;-0.95;72.94;97369.57;1677186;84;21027;-82
2022/02/26 05:27:15;;;;;;;7.60;3.95;;;;;;;-0.97;73.13;97359.91;1677034;84;20984;-83
2022/02/26 05:29:41;;;;;;;7.03;3.50;;;;;;;-0.97;73.25;97364.19;1667144;85;21434;-83
2022/02/26 05:32:07;;;;;;;6.80;3.87;;;;;;;-0.96;73.25;97373.03;1676301;84;21023;-83
2022/02/26 05:34:33;;;;;;;6.30;5.00;;;;;;;-0.95;73.24;97373.85;1696042;84;21006;-82
2022/02/26 05:36:59;;;;;;;5.92;3.52;;;;;;;-0.95;73.00;97379.77;1707620;83;21012;-83
2022/02/26 05:39:24;;;;;;;7.10;4.35;;;;;;;-0.94;73.03;97380.59;1703672;84;21325;-83
2022/02/26 05:41:50;;;;;;;4.50;3.55;;;;;;;-0.95;72.79;97385.33;1704904;84;21028;-82
2022/02/26 05:44:16;;;;;;;5.55;3.90;;;;;;;-0.99;72.68;97391.03;1713503;83;21093;-82
2022/02/26 05:46:41;;;;;;;4.90;3.80;;;;;;;-1.01;72.67;97387.75;1700240;84;21073;-82
2022/02/26 05:49:07;;;;;;;4.97;3.35;;;;;;;-1.02;72.73;97392.94;1661080;85;21324;-82
2022/02/26 05:51:33;;;;;;;5.53;3.52;;;;;;;-1.03;72.85;97396.41;1684109;84;21006;-82
2022/02/26 05:53:59;;;;;;;5.97;3.20;;;;;;;-1.04;72.88;97402.41;1694813;84;21008;-82
2022/02/26 05:56:24;;;;;;;5.08;3.72;;;;;;;-1.08;72.91;97400.49;1706540;84;21375;-82
2022/02/26 05:58:50;;;;;;;4.12;3.52;;;;;;;-1.08;72.92;97408.14;1678922;85;20949;-82
2022/02/26 06:01:16;;;;;;;4.12;3.47;;;;;;;-1.06;72.93;97411.88;1682466;84;21055;-83
2022/02/26 06:03:41;;;;;;;5.25;3.55;;;;;;;-1.06;72.93;97410.61;1683958;85;20998;-82
2022/02/26 06:06:07;;;;;;;5.15;3.67;;;;;;;-1.06;72.95;97407.60;1682663;84;21012;-82
2022/02/26 06:08:33;;;;;;;5.25;3.60;;;;;;;-1.05;72.92;97412.25;1710466;84;21000;-82
2022/02/26 06:10:58;;;;;;;6.53;3.65;;;;;;;-1.04;73.16;97413.44;1714883;83;21444;-83
2022/02/26 06:13:24;;;;;;;8.80;3.72;;;;;;;-1.02;73.24;97409.52;1717473;83;21067;-82
2022/02/26 06:15:50;;;;;;;7.97;5.12;;;;;;;-0.98;73.30;97416.95;1706545;83;20968;-82
2022/02/26 06:18:18;;;;;;;6.87;3.22;;;;;;;-0.95;73.29;97418.05;1685131;84;21405;-82
2022/02/26 06:20:44;;;;;;;5.60;3.35;;;;;;;-0.92;73.45;97411.94;1699604;84;20982;-82
2022/02/26 06:23:09;;;;;;;4.30;3.47;;;;;;;-0.91;73.52;97423.34;1692142;83;20988;-81
2022/02/26 06:25:35;;;;;;;4.92;3.62;;;;;;;-0.87;73.55;97427.80;1681277;83;20974;-82
2022/02/26 06:28:01;;;;;;;5.62;3.60;;;;;;;-0.83;73.58;97432.28;1722824;83;20988;-82
2022/02/26 06:30:26;;;;;;;4.55;3.40;;;;;;;-0.79;73.64;97433.77;1725776;83;21337;-82
2022/02/26 06:32:53;;;;;;;4.33;3.42;;;;;;;-0.76;73.75;97439.52;1717009;83;20989;-82
2022/02/26 06:35:19;;;;;;;7.50;5.12;;;;;;;-0.70;73.88;97444.73;1704423;83;21004;-83
2022/02/26 06:37:45;;;;;;;4.55;3.30;;;;;;;-0.58;73.83;97445.77;1704641;83;21021;-82
2022/02/26 06:40:10;;;;;;;5.35;3.37;;;;;;;-0.49;73.87;97449.06;1699783;84;21448;-82
2022/02/26 06:42:36;;;;;;;7.53;3.72;;;;;;;-0.39;73.72;97451.47;1700788;83;21004;-82
2022/02/26 06:45:03;;;;;;;7.40;3.98;;;;;;;-0.29;73.84;97458.16;1709222;83;20959;-82
2022/02/26 06:47:28;;;;;;;5.42;4.50;;;;;;;-0.18;74.05;97457.89;1695303;83;21057;-83
2022/02/26 06:49:54;;;;;;;7.28;4.25;;;;;;;-0.07;73.97;97461.92;1675776;83;21538;-82
2022/02/26 06:52:20;;;;;;;4.75;3.55;;;;;;;0.09;74.30;97468.23;1677772;83;21132;-82
2022/02/26 06:54:46;;;;;;;4.03;3.25;;;;;;;0.20;74.20;97472.27;1671650;84;21010;-82
2022/02/26 06:57:12;;;;;;;7.45;3.10;;;;;;;0.31;74.44;97475.44;1684764;84;20956;-82
2022/02/26 06:59:37;;;;;;;4.40;2.80;;;;;;;0.39;74.65;97473.72;1708399;83;21016;-83
2022/02/26 07:02:04;;;;;;;6.62;3.70;;;;;;;0.47;74.95;97472.78;1688819;83;21036;-82
2022/02/26 07:04:29;;;;;;;6.10;4.22;;;;;;;0.55;74.71;97476.54;1700202;84;21087;-82
2022/02/26 07:06:55;;;;;;;5.30;3.35;;;;;;;0.64;74.96;97473.86;1676415;84;20995;-82
2022/02/26 07:09:22;;;;;;;8.50;6.47;;;;;;;0.73;74.23;97473.31;1674501;84;21037;-82
2022/02/26 07:11:49;;;;;;;5.78;4.25;;;;;;;0.81;73.25;97480.50;1671549;84;21007;-83
2022/02/26 07:14:16;;;;;;;6.58;4.35;;;;;;;0.92;73.67;97485.79;1684880;83;21026;-82
2022/02/26 07:16:42;;;;;;;7.35;5.08;;;;;;;1.01;73.71;97493.37;1699156;83;21414;-83
2022/02/26 07:19:08;;;;;;;5.53;4.10;;;;;;;1.07;73.58;97492.52;1689647;83;20933;-82
2022/02/26 07:21:34;;;;;;;7.70;4.65;;;;;;;1.07;74.20;97496.36;1712706;83;21010;-82
2022/02/26 07:24:00;;;;;;;11.45;6.28;;;;;;;1.10;74.17;97495.34;1672478;84;20967;-82
2022/02/26 07:26:28;;;;;;;30.32;13.85;;;;;;;1.12;73.80;97501.18;1677669;84;20990;-82
2022/02/26 07:28:53;;;;;;;18.95;9.85;;;;;;;1.16;73.45;97511.62;1697597;84;21445;-82
2022/02/26 07:31:19;;;;;;;16.15;9.83;;;;;;;1.31;73.52;97518.80;1705526;83;21007;-82
2022/02/26 07:33:45;;;;;;;26.07;10.95;;;;;;;1.44;73.54;97525.58;1706507;83;20972;-83
2022/02/26 07:36:11;;;;;;;13.15;8.03;;;;;;;1.57;73.12;97518.41;1716806;83;21382;-81
2022/02/26 07:38:37;;;;;;;17.40;10.58;;;;;;;1.67;72.30;97524.13;1715402;83;20995;-81
2022/02/26 07:41:03;;;;;;;23.92;12.90;;;;;;;1.79;72.13;97528.48;1712947;83;20968;-81
2022/02/26 07:43:29;;;;;;;15.93;10.18;;;;;;;1.95;71.57;97532.14;1713877;83;21394;-82
2022/02/26 07:45:55;;;;;;;13.13;8.75;;;;;;;2.07;71.25;97537.73;1702330;83;21070;-81
2022/02/26 07:48:21;;;;;;;14.65;8.35;;;;;;;2.14;70.52;97538.16;1698239;83;21357;-81
2022/02/26 07:50:47;;;;;;;12.63;7.83;;;;;;;2.18;70.33;97542.16;1703644;83;21022;-82
2022/02/26 07:53:12;;;;;;;10.72;7.65;;;;;;;2.24;69.76;97546.05;1701074;83;21156;-82
2022/02/26 07:55:39;;;;;;;10.40;7.25;;;;;;;2.27;68.94;97546.66;1699889;83;20929;-81
2022/02/26 07:58:05;;;;;;;15.55;8.30;;;;;;;2.30;68.32;97554.17;1704027;83;20997;-83
2022/02/26 08:00:31;;;;;;;16.48;9.28;;;;;;;2.34;68.75;97550.94;1696747;83;20966;-82
2022/02/26 08:02:57;;;;;;;20.60;13.70;;;;;;;2.39;68.46;97554.83;1703529;83;20995;-83
2022/02/26 08:05:24;;;;;;;23.30;14.05;;;;;;;2.44;68.12;97557.55;1701578;83;20987;-82
2022/02/26 08:07:51;;;;;;;33.00;17.65;;;;;;;2.48;68.31;97564.14;1700883;83;21003;-82
2022/02/26 08:10:17;;;;;;;19.50;11.78;;;;;;;2.50;67.69;97569.52;1699710;83;21083;-82
2022/02/26 08:12:45;;;;;;;14.30;8.75;;;;;;;2.48;67.26;97572.65;1697026;83;21139;-82
2022/02/26 08:15:12;;;;;;;16.87;12.30;;;;;;;2.50;67.43;97572.08;1698930;83;21053;-82
2022/02/26 08:17:38;;;;;;;22.93;14.00;;;;;;;2.53;66.88;97572.34;1698788;84;21025;-82
2022/02/26 08:20:05;;;;;;;22.27;13.90;;;;;;;2.60;67.20;97582.10;1699217;84;20982;-82
2022/02/26 08:22:31;;;;;;;20.90;14.35;;;;;;;2.66;67.07;97584.70;1699021;83;21818;-83
2022/02/26 08:24:57;;;;;;;29.27;15.90;;;;;;;2.62;67.01;97582.81;1693585;84;21048;-83
2022/02/26 08:27:23;;;;;;;32.58;19.67;;;;;;;2.66;67.22;97587.27;1694023;85;20960;-83
2022/02/26 08:29:49;;;;;;;23.12;13.80;;;;;;;2.64;67.42;97589.12;1656940;85;20953;-83
2022/02/26 08:32:14;;;;;;;19.27;12.63;;;;;;;2.67;67.20;97592.77;1697225;83;21423;-83
2022/02/26 08:34:40;;;;;;;18.90;13.95;;;;;;;2.65;67.33;97590.77;1734674;83;20979;-83
2022/02/26 08:37:06;;;;;;;24.57;15.95;;;;;;;2.70;67.46;97599.79;1734528;83;20991;-83
2022/02/26 08:39:31;;;;;;;22.90;14.40;;;;;;;2.72;67.72;97595.83;1732041;83;21344;-83
2022/02/26 08:41:57;;;;;;;16.97;11.35;;;;;;;2.75;67.94;97595.62;1729931;83;21088;-83
2022/02/26 08:44:23;;;;;;;20.75;12.47;;;;;;;2.74;67.58;97602.14;1729735;82;21028;-83
2022/02/26 08:46:50;;;;;;;21.07;13.75;;;;;;;2.68;67.88;97599.54;1729889;83;20959;-83
2022/02/26 08:49:15;;;;;;;22.87;15.60;;;;;;;2.63;68.20;97598.57;1729932;83;21048;-83
2022/02/26 08:51:41;;;;;;;22.93;14.00;;;;;;;2.60;68.21;97602.63;1730092;83;21395;-83
2022/02/26 08:54:07;;;;;;;22.48;14.53;;;;;;;2.55;68.44;97605.95;1729953;82;21005;-83
2022/02/26 08:56:32;;;;;;;19.80;13.20;;;;;;;2.51;68.70;97602.41;1729932;83;21000;-83
2022/02/26 08:58:59;;;;;;;21.17;13.50;;;;;;;2.51;69.13;97604.52;1729874;83;21049;-83
2022/02/26 09:01:25;;;;;;;19.48;13.38;;;;;;;2.49;69.05;97608.92;1729843;82;21008;-83
2022/02/26 09:03:50;;;;;;;22.60;13.28;;;;;;;2.51;69.06;97609.64;1703525;83;21077;-83
2022/02/26 09:06:16;;;;;;;29.85;16.97;;;;;;;2.52;69.17;97615.13;1730091;83;21012;-83
2022/02/26 09:08:42;;;;;;;26.48;18.57;;;;;;;2.49;69.12;97612.77;1730097;83;20938;-83
2022/02/26 09:11:08;;;;;;;24.18;15.43;;;;;;;2.43;69.14;97615.72;1736449;82;20991;-83
2022/02/26 09:13:39;;;;;;;32.33;15.53;;;;;;;2.46;69.51;97621.96;1734760;83;21023;-83
2022/02/26 09:16:06;;;;;;;24.23;16.02;;;;;;;2.44;69.40;97625.09;1734703;83;21027;-83
2022/02/26 09:18:32;;;;;;;25.40;16.15;;;;;;;2.42;69.45;97625.63;1734798;83;20979;-83
2022/02/26 09:20:58;;;;;;;28.23;15.63;;;;;;;2.45;69.66;97624.17;1734840;83;21010;-83
2022/02/26 09:23:23;;;;;;;20.57;14.35;;;;;;;2.50;69.65;97622.11;1721122;83;21030;-83
2022/02/26 09:25:49;;;;;;;20.05;11.60;;;;;;;2.55;69.42;97626.94;1721984;83;20973;-83
2022/02/26 09:28:15;;;;;;;19.30;13.45;;;;;;;2.57;69.46;97628.47;1717698;83;22358;-83
2022/02/26 09:30:41;;;;;;;21.77;14.53;;;;;;;2.56;69.51;97636.27;1712121;83;21063;-83
2022/02/26 09:33:07;;;;;;;24.18;13.62;;;;;;;2.58;69.50;97639.55;1693127;83;21091;-83
2022/02/26 09:35:32;;;;;;;22.13;14.75;;;;;;;2.60;69.93;97633.42;1694073;83;21561;-83
2022/02/26 09:37:58;;;;;;;21.07;13.75;;;;;;;2.64;69.63;97638.70;1716668;83;21105;-83
2022/02/26 09:40:24;;;;;;;19.95;13.75;;;;;;;2.68;69.13;97644.45;1717628;83;21077;-83
2022/02/26 09:42:49;;;;;;;24.98;17.07;;;;;;;2.73;69.31;97646.70;1717774;83;21101;-83
2022/02/26 09:45:15;;;;;;;22.25;14.07;;;;;;;2.79;69.00;97645.84;1717648;83;21136;-83
2022/02/26 09:47:41;;;;;;;23.22;14.60;;;;;;;2.78;69.25;97648.52;1690763;83;21080;-83
2022/02/26 09:50:08;;;;;;;23.83;13.95;;;;;;;2.73;69.32;97651.83;1717931;83;21054;-83
2022/02/26 09:52:39;;;;;;;21.20;13.65;;;;;;;2.69;69.29;97652.50;1712966;83;20979;-83
2022/02/26 09:55:06;;;;;;;20.05;15.13;;;;;;;2.65;69.44;97657.02;1694966;85;21331;-83
2022/02/26 09:57:33;;;;;;;20.50;13.78;;;;;;;2.63;69.64;97662.73;1694387;85;21059;-83
2022/02/26 09:59:59;;;;;;;17.75;14.28;;;;;;;2.58;69.81;97662.64;1694674;85;21027;-83
2022/02/26 10:02:33;;;;;;;17.62;12.53;;;;;;;2.58;70.31;97660.08;1694627;85;21394;-83
2022/02/26 10:05:01;;;;;;;18.98;13.00;;;;;;;2.60;70.28;97659.08;1694670;85;21055;-83
2022/02/26 10:07:27;;;;;;;22.25;15.68;;;;;;;2.68;70.29;97660.66;1694781;85;20992;-83
2022/02/26 10:09:54;;;;;;;25.45;18.60;;;;;;;2.73;70.16;97666.77;1694728;85;21470;-84
2022/02/26 10:12:25;;;;;;;22.15;13.22;;;;;;;2.71;70.13;97658.35;1726558;82;21047;-83
2022/02/26 10:14:56;;;;;;;20.08;12.82;;;;;;;2.81;70.28;97673.52;1734672;83;21082;-83
2022/02/26 10:17:36;;;;;;;16.67;12.37;;;;;;;2.90;70.30;97674.17;1735108;83;20959;-83
2022/02/26 10:20:16;;;;;;;20.45;12.03;;;;;;;2.89;69.76;97678.95;1734838;83;20994;-83
2022/02/26 10:22:46;;;;;;;17.32;11.95;;;;;;;2.91;69.84;97673.70;1703694;83;21001;-83
2022/02/26 10:25:14;;;;;;;20.20;12.68;;;;;;;2.92;70.02;97674.88;1702042;83;21505;-83
2022/02/26 10:27:45;;;;;;;17.65;10.60;;;;;;;3.01;70.93;97678.13;1694770;83;21007;-85
2022/02/26 10:30:27;;;;;;;17.07;11.20;;;;;;;3.09;71.64;97680.20;1686174;83;20936;-85
2022/02/26 10:33:17;;;;;;;17.67;13.00;;;;;;;3.17;71.09;97681.77;1685934;83;21393;-85
2022/02/26 10:35:49;;;;;;;18.57;10.75;;;;;;;3.25;70.83;97679.95;1695559;83;21060;-86
2022/02/26 10:38:22;;;;;;;14.65;9.78;;;;;;;3.35;71.08;97684.02;1707322;83;21416;-86
2022/02/26 10:40:55;;;;;;;14.45;9.98;;;;;;;3.29;70.30;97689.12;1715823;83;21019;-87
2022/02/26 10:43:48;;;;;;;15.28;10.28;;;;;;;3.31;70.89;97692.40;1709544;83;21099;-86
2022/02/26 10:46:21;;;;;;;13.70;9.78;;;;;;;3.49;70.87;97686.46;1683076;83;20987;-84
2022/02/26 10:48:49;;;;;;;13.55;9.73;;;;;;;3.67;71.41;97685.18;1684441;83;21083;-84
2022/02/26 10:51:17;;;;;;;16.42;10.90;;;;;;;3.74;70.61;97693.27;1689976;83;22560;-84
2022/02/26 10:53:43;;;;;;;17.82;11.55;;;;;;;3.84;70.37;97696.39;1697938;83;20968;-84
2022/02/26 10:56:10;;;;;;;13.88;9.35;;;;;;;3.98;69.46;97701.03;1686860;83;20963;-85
2022/02/26 10:58:36;;;;;;;15.78;11.22;;;;;;;4.06;69.64;97691.83;1724195;81;21088;-84
2022/02/26 11:01:04;;;;;;;16.02;10.05;;;;;;;4.03;69.85;97693.34;1729013;82;21025;-84
2022/02/26 11:03:32;;;;;;;15.53;10.25;;;;;;;3.94;69.66;97690.15;1674969;83;21040;-84
2022/02/26 11:05:57;;;;;;;14.07;9.80;;;;;;;3.81;69.58;97691.94;1732818;82;21004;-84
2022/02/26 11:08:23;;;;;;;14.78;10.90;;;;;;;3.76;70.22;97700.45;1697809;83;21284;-84
2022/02/26 11:10:51;;;;;;;17.20;12.15;;;;;;;3.69;70.00;97696.64;1734757;81;21062;-85
2022/02/26 11:13:17;;;;;;;16.23;11.85;;;;;;;3.53;70.07;97693.84;1742097;81;21542;-85
2022/02/26 11:15:43;;;;;;;16.45;12.33;;;;;;;3.42;70.21;97695.53;1740953;81;21018;-85
2022/02/26 11:18:09;;;;;;;18.37;13.55;;;;;;;3.39;70.79;97693.97;1732540;81;20960;-84
2022/02/26 11:20:35;;;;;;;17.57;13.45;;;;;;;3.41;71.17;97694.68;1709457;83;21048;-83
2022/02/26 11:23:00;;;;;;;18.98;13.03;;;;;;;3.37;71.01;97698.39;1703115;83;21403;-84
2022/02/26 11:25:27;;;;;;;17.20;10.80;;;;;;;3.37;71.03;97701.42;1737840;81;21008;-84
2022/02/26 11:27:53;;;;;;;16.82;10.53;;;;;;;3.37;70.65;97695.00;1734612;81;21238;-84